Time;durP1;ratioP1;P1;durP2;ratioP2;P2;SDS_P1;SDS_P2;PMS_P1;PMS_P2;Temp;Humidity;BMP_temperature;BMP_pressure;BME280_temperature;BME280_humidity;BME280_pressure;Samples;Min_cycle;Max_cycle;Signal;HPM_P1;HPM_P2
2024/02/26 00:00:29;;;;;;;;;;;;;;;9.30;100.00;98456.56;5041388;28;19925;-80
2024/02/26 00:02:54;;;;;;;;;;;;;;;9.41;100.00;98457.03;5051703;28;20419;-80
2024/02/26 00:05:19;;;;;;;;;;;;;;;9.43;100.00;98456.63;5044897;28;19917;-81
2024/02/26 00:07:45;;;;;;;;;;;;;;;9.45;100.00;98463.25;5045704;28;19924;-79
2024/02/26 00:10:10;;;;;;;;;;;;;;;9.47;100.00;98463.59;5040853;28;19952;-80
2024/02/26 00:12:36;;;;;;;;;;;;;;;9.42;100.00;98452.31;5053002;28;19928;-80
2024/02/26 00:15:01;;;;;;;;;;;;;;;9.27;100.00;98441.69;5052535;28;19916;-80
2024/02/26 00:17:26;;;;;;;;;;;;;;;9.28;100.00;98450.72;5052033;28;19917;-80
2024/02/26 00:19:51;;;;;;;;;;;;;;;9.30;100.00;98454.56;5052023;28;19923;-80
2024/02/26 00:22:17;;;;;;;;;;;;;;;9.44;100.00;98439.66;5051811;28;19927;-80
2024/02/26 00:24:44;;;;;;;;;;;;;;;9.42;100.00;98431.03;5044523;28;19917;-80
2024/02/26 00:27:09;;;;;;;;;;;;;;;9.44;100.00;98436.13;5046047;28;19982;-80
2024/02/26 00:29:34;;;;;;;;;;;;;;;9.43;100.00;98440.84;5051988;28;19913;-81
2024/02/26 00:32:01;;;;;;;;;;;;;;;9.47;100.00;98435.22;5051730;28;20420;-80
2024/02/26 00:34:26;;;;;;;;;;;;;;;9.57;100.00;98443.22;5052288;28;19924;-80
2024/02/26 00:36:51;;;;;;;;;;;;;;;9.55;100.00;98444.88;5051447;28;19912;-80
2024/02/26 00:39:17;;;;;;;;;;;;;;;9.69;100.00;98422.41;5051515;28;19913;-79
2024/02/26 00:41:42;;;;;;;;;;;;;;;9.74;100.00;98403.34;5051805;28;19912;-81
2024/02/26 00:44:07;;;;;;;;;;;;;;;9.72;100.00;98397.47;5051894;28;19917;-81
2024/02/26 00:46:33;;;;;;;;;;;;;;;9.67;100.00;98408.28;5051385;28;19917;-81
2024/02/26 00:48:58;;;;;;;;;;;;;;;9.61;100.00;98418.31;5051533;28;19928;-80
2024/02/26 00:51:23;;;;;;;;;;;;;;;9.47;100.00;98411.19;5051175;28;20027;-81
2024/02/26 00:53:48;;;;;;;;;;;;;;;9.61;100.00;98415.53;5051248;28;20299;-80
2024/02/26 00:56:14;;;;;;;;;;;;;;;9.70;100.00;98416.47;5051520;28;19919;-80
2024/02/26 00:58:39;;;;;;;;;;;;;;;9.78;100.00;98414.25;5051359;28;20380;-81
2024/02/26 01:01:04;;;;;;;;;;;;;;;9.82;100.00;98401.91;5051551;28;20396;-80
2024/02/26 01:03:29;;;;;;;;;;;;;;;9.80;100.00;98401.59;5050935;28;19979;-79
2024/02/26 01:05:55;;;;;;;;;;;;;;;9.72;100.00;98405.75;5051488;28;19917;-80
2024/02/26 01:08:20;;;;;;;;;;;;;;;9.73;100.00;98399.03;5051527;28;19923;-79
2024/02/26 01:10:46;;;;;;;;;;;;;;;9.76;100.00;98394.63;5051285;28;19917;-79
2024/02/26 01:13:11;;;;;;;;;;;;;;;9.82;100.00;98396.38;5034205;28;19925;-80
2024/02/26 01:15:36;;;;;;;;;;;;;;;9.86;100.00;98399.06;5051362;28;20415;-80
2024/02/26 01:18:01;;;;;;;;;;;;;;;9.89;100.00;98403.69;5051109;28;20011;-80
2024/02/26 01:20:27;;;;;;;;;;;;;;;9.92;100.00;98394.53;5051330;28;20312;-80
2024/02/26 01:22:52;;;;;;;;;;;;;;;10.01;100.00;98396.63;5051025;28;19917;-79
2024/02/26 01:25:18;;;;;;;;;;;;;;;10.10;100.00;98402.28;5052352;28;20319;-79
2024/02/26 01:27:44;;;;;;;;;;;;;;;10.13;100.00;98399.41;5051601;28;19920;-80
2024/02/26 01:30:09;;;;;;;;;;;;;;;10.14;100.00;98400.97;5051492;28;19920;-80
2024/02/26 01:32:36;;;;;;;;;;;;;;;10.18;100.00;98403.66;5051114;28;19927;-80
2024/02/26 01:35:02;;;;;;;;;;;;;;;10.23;100.00;98400.34;5052349;28;19917;-80
2024/02/26 01:37:29;;;;;;;;;;;;;;;10.30;100.00;98394.59;5050826;28;19923;-80
2024/02/26 01:39:54;;;;;;;;;;;;;;;10.33;100.00;98390.19;5050809;28;20020;-79
2024/02/26 01:42:20;;;;;;;;;;;;;;;10.26;100.00;98387.63;5050726;28;19956;-80
2024/02/26 01:44:45;;;;;;;;;;;;;;;10.27;100.00;98384.44;5051715;28;20411;-80
2024/02/26 01:47:12;;;;;;;;;;;;;;;10.24;100.00;98385.34;5054812;28;19916;-80
2024/02/26 01:49:38;;;;;;;;;;;;;;;10.21;100.00;98383.44;5055056;28;19917;-80
2024/02/26 01:52:04;;;;;;;;;;;;;;;10.22;100.00;98375.94;5054356;28;20392;-79
2024/02/26 01:54:30;;;;;;;;;;;;;;;10.19;100.00;98375.59;5054836;28;20011;-79
2024/02/26 01:56:56;;;;;;;;;;;;;;;10.16;100.00;98386.72;5054867;28;20367;-81
2024/02/26 01:59:22;;;;;;;;;;;;;;;10.16;100.00;98384.78;5054795;28;19917;-79
2024/02/26 02:01:49;;;;;;;;;;;;;;;10.14;100.00;98376.13;5054215;28;20387;-80
2024/02/26 02:04:15;;;;;;;;;;;;;;;10.05;100.00;98381.53;5054688;28;19917;-79
2024/02/26 02:06:41;;;;;;;;;;;;;;;10.05;100.00;98380.75;5054372;28;19920;-79
2024/02/26 02:09:08;;;;;;;;;;;;;;;10.07;100.00;98381.06;5054604;28;20308;-80
2024/02/26 02:11:34;;;;;;;;;;;;;;;10.07;100.00;98383.84;5054033;28;19920;-80
2024/02/26 02:13:59;;;;;;;;;;;;;;;10.09;100.00;98386.94;5054192;28;19917;-80
2024/02/26 02:16:24;;;;;;;;;;;;;;;10.17;100.00;98374.50;5054085;28;19917;-80
2024/02/26 02:18:50;;;;;;;;;;;;;;;10.14;100.00;98369.81;5054370;28;19916;-80
2024/02/26 02:21:15;;;;;;;;;;;;;;;10.15;100.00;98374.91;5054004;28;20008;-81
2024/02/26 02:23:42;;;;;;;;;;;;;;;10.19;100.00;98372.06;5054219;28;20023;-80
2024/02/26 02:26:07;;;;;;;;;;;;;;;10.23;100.00;98360.91;5053838;28;19920;-80
2024/02/26 02:28:33;;;;;;;;;;;;;;;10.22;100.00;98354.63;5054182;28;20296;-80
2024/02/26 02:30:58;;;;;;;;;;;;;;;10.19;100.00;98356.25;5053903;28;20359;-80
2024/02/26 02:33:25;;;;;;;;;;;;;;;10.12;100.00;98359.25;5054200;28;19920;-80
2024/02/26 02:35:52;;;;;;;;;;;;;;;10.16;100.00;98359.13;5053705;28;19920;-80
2024/02/26 02:38:17;;;;;;;;;;;;;;;10.20;100.00;98363.34;5053913;28;19956;-81
2024/02/26 02:40:42;;;;;;;;;;;;;;;10.20;100.00;98365.31;5053849;28;19917;-81
2024/02/26 02:43:08;;;;;;;;;;;;;;;10.23;100.00;98363.69;5054913;28;19936;-80
2024/02/26 02:45:33;;;;;;;;;;;;;;;10.19;100.00;98372.81;5053593;28;19913;-80
2024/02/26 02:47:58;;;;;;;;;;;;;;;10.20;100.00;98370.84;5054170;28;19938;-81
2024/02/26 02:50:24;;;;;;;;;;;;;;;10.22;100.00;98371.19;5053718;28;20428;-81
2024/02/26 02:52:50;;;;;;;;;;;;;;;10.20;100.00;98377.16;5054649;28;20049;-80
2024/02/26 02:55:16;;;;;;;;;;;;;;;10.17;100.00;98383.56;5053310;28;20453;-80
2024/02/26 02:57:42;;;;;;;;;;;;;;;10.19;100.00;98394.13;5053486;28;19917;-80
2024/02/26 03:00:08;;;;;;;;;;;;;;;10.25;100.00;98394.38;5053329;28;19952;-80
2024/02/26 03:02:35;;;;;;;;;;;;;;;10.23;100.00;98386.53;5053182;28;19982;-80
2024/02/26 03:05:01;;;;;;;;;;;;;;;10.25;100.00;98392.38;5053375;28;19917;-80
2024/02/26 03:07:26;;;;;;;;;;;;;;;10.23;100.00;98396.81;5052967;28;19974;-80
2024/02/26 03:09:51;;;;;;;;;;;;;;;10.22;100.00;98398.03;5053430;28;19975;-81
2024/02/26 03:12:17;;;;;;;;;;;;;;;10.13;100.00;98391.13;5053609;28;20289;-80
2024/02/26 03:14:43;;;;;;;;;;;;;;;10.15;100.00;98393.47;5053086;28;19917;-80
2024/02/26 03:17:08;;;;;;;;;;;;;;;10.07;100.00;98389.34;5053565;28;19986;-81
2024/02/26 03:19:34;;;;;;;;;;;;;;;10.00;100.00;98390.38;5053146;28;19917;-80
2024/02/26 03:21:59;;;;;;;;;;;;;;;9.95;100.00;98390.88;5052570;28;19917;-81
2024/02/26 03:24:24;;;;;;;;;;;;;;;9.92;100.00;98388.25;5053102;28;19917;-80
2024/02/26 03:26:51;;;;;;;;;;;;;;;9.88;100.00;98391.13;5053315;28;20368;-79
2024/02/26 03:29:16;;;;;;;;;;;;;;;9.78;100.00;98392.19;5039667;28;19921;-81
2024/02/26 03:31:42;;;;;;;;;;;;;;;9.70;100.00;98391.66;5053128;28;19916;-80
2024/02/26 03:34:07;;;;;;;;;;;;;;;9.65;100.00;98392.16;5052955;28;19923;-80
2024/02/26 03:36:32;;;;;;;;;;;;;;;9.61;100.00;98383.22;5052810;28;19916;-81
2024/02/26 03:38:58;;;;;;;;;;;;;;;9.57;100.00;98390.84;5052808;28;20027;-80
2024/02/26 03:41:23;;;;;;;;;;;;;;;9.57;100.00;98392.81;5052875;28;19948;-80
2024/02/26 03:43:49;;;;;;;;;;;;;;;9.65;100.00;98394.13;5052170;28;20361;-81
2024/02/26 03:46:14;;;;;;;;;;;;;;;9.64;100.00;98392.63;5052298;28;19913;-82
2024/02/26 03:48:42;;;;;;;;;;;;;;;9.59;100.00;98393.91;5053054;28;19912;-80
2024/02/26 03:51:11;;;;;;;;;;;;;;;9.59;100.00;98390.38;5052510;28;19952;-80
2024/02/26 03:53:36;;;;;;;;;;;;;;;9.60;100.00;98394.69;5053505;28;20030;-80
2024/02/26 03:56:05;;;;;;;;;;;;;;;9.63;100.00;98397.34;5052384;28;19925;-79
2024/02/26 03:58:30;;;;;;;;;;;;;;;9.64;100.00;98398.91;5052349;28;20384;-80
2024/02/26 04:00:56;;;;;;;;;;;;;;;9.66;100.00;98395.69;5052265;28;19966;-81
2024/02/26 04:03:21;;;;;;;;;;;;;;;9.68;100.00;98388.53;5051479;28;19925;-80
2024/02/26 04:05:47;;;;;;;;;;;;;;;9.70;100.00;98388.88;5052400;28;19912;-80
2024/02/26 04:08:12;;;;;;;;;;;;;;;9.67;100.00;98398.03;5051196;28;20304;-80
2024/02/26 04:10:38;;;;;;;;;;;;;;;9.64;100.00;98395.38;5052203;28;19923;-80
2024/02/26 04:13:04;;;;;;;;;;;;;;;9.68;100.00;98390.53;5052927;28;20022;-80
2024/02/26 04:15:30;;;;;;;;;;;;;;;9.61;100.00;98394.25;5052058;28;19977;-80
2024/02/26 04:17:55;;;;;;;;;;;;;;;9.60;100.00;98383.66;5052033;28;19924;-80
2024/02/26 04:20:20;;;;;;;;;;;;;;;9.58;100.00;98388.84;5051825;28;19917;-79
2024/02/26 04:22:46;;;;;;;;;;;;;;;9.48;100.00;98385.16;5051845;28;19917;-80
2024/02/26 04:25:11;;;;;;;;;;;;;;;9.50;100.00;98381.97;5052166;28;19924;-80
2024/02/26 04:27:37;;;;;;;;;;;;;;;9.48;100.00;98376.88;5051624;28;19916;-81
2024/02/26 04:30:03;;;;;;;;;;;;;;;9.46;100.00;98384.06;5051756;28;19999;-79
2024/02/26 04:32:29;;;;;;;;;;;;;;;9.44;100.00;98387.25;5052476;28;19970;-80
2024/02/26 04:34:54;;;;;;;;;;;;;;;9.42;100.00;98391.66;5051964;28;19920;-80
2024/02/26 04:37:19;;;;;;;;;;;;;;;9.34;100.00;98380.06;5051807;28;19917;-81
2024/02/26 04:39:45;;;;;;;;;;;;;;;9.29;100.00;98384.09;5052156;28;19940;-81
2024/02/26 04:42:10;;;;;;;;;;;;;;;9.26;100.00;98389.72;5051668;28;19923;-81
2024/02/26 04:44:36;;;;;;;;;;;;;;;9.24;100.00;98392.91;5051691;28;19917;-80
2024/02/26 04:47:01;;;;;;;;;;;;;;;9.19;100.00;98389.91;5052885;28;20507;-80
2024/02/26 04:49:26;;;;;;;;;;;;;;;9.15;100.00;98392.78;5051622;28;19912;-80
2024/02/26 04:51:52;;;;;;;;;;;;;;;9.09;100.00;98386.25;5051355;28;19913;-80
2024/02/26 04:54:17;;;;;;;;;;;;;;;9.18;100.00;98388.34;5051468;28;19913;-80
2024/02/26 04:56:42;;;;;;;;;;;;;;;9.11;100.00;98394.06;5051736;28;19917;-80
2024/02/26 04:59:07;;;;;;;;;;;;;;;9.15;100.00;98405.78;5051679;28;19921;-79
2024/02/26 05:01:33;;;;;;;;;;;;;;;9.20;100.00;98394.22;5051566;28;19917;-80
2024/02/26 05:03:58;;;;;;;;;;;;;;;9.17;100.00;98406.09;5051148;28;20384;-80
2024/02/26 05:06:24;;;;;;;;;;;;;;;9.18;100.00;98399.38;5034627;28;19924;-80
2024/02/26 05:08:49;;;;;;;;;;;;;;;9.27;100.00;98405.06;5051396;28;19912;-80
2024/02/26 05:11:14;;;;;;;;;;;;;;;9.29;100.00;98400.66;5051100;28;19970;-80
2024/02/26 05:13:41;;;;;;;;;;;;;;;9.32;100.00;98405.31;5052430;28;19920;-79
2024/02/26 05:16:06;;;;;;;;;;;;;;;9.33;100.00;98390.31;5050884;28;19913;-79
2024/02/26 05:18:31;;;;;;;;;;;;;;;9.40;100.00;98400.38;5052197;28;20381;-80
2024/02/26 05:20:56;;;;;;;;;;;;;;;9.43;100.00;98388.47;5055874;28;19924;-79
2024/02/26 05:23:22;;;;;;;;;;;;;;;9.43;100.00;98399.50;5054992;28;20074;-80
2024/02/26 05:25:48;;;;;;;;;;;;;;;9.44;100.00;98401.03;5054578;28;19927;-79
2024/02/26 05:28:15;;;;;;;;;;;;;;;9.49;100.00;98402.50;5054893;28;19924;-80
2024/02/26 05:30:41;;;;;;;;;;;;;;;9.49;100.00;98403.25;5055479;28;19952;-81
2024/02/26 05:33:06;;;;;;;;;;;;;;;9.52;100.00;98405.16;5054347;28;19975;-79
2024/02/26 05:35:31;;;;;;;;;;;;;;;9.53;100.00;98403.94;5054688;28;19920;-79
2024/02/26 05:37:56;;;;;;;;;;;;;;;9.52;100.00;98407.91;5054542;28;19917;-80
2024/02/26 05:40:22;;;;;;;;;;;;;;;9.48;100.00;98415.50;5054442;28;19925;-80
2024/02/26 05:42:48;;;;;;;;;;;;;;;9.43;100.00;98423.53;5054644;28;20011;-79
2024/02/26 05:45:14;;;;;;;;;;;;;;;9.47;100.00;98421.44;5054470;28;19943;-79
2024/02/26 05:47:42;;;;;;;;;;;;;;;9.44;100.00;98427.84;5054074;28;19921;-79
2024/02/26 05:50:10;;;;;;;;;;;;;;;9.47;100.00;98427.72;5053964;28;19945;-79
2024/02/26 05:52:36;;;;;;;;;;;;;;;9.40;100.00;98433.47;5054423;28;19917;-80
2024/02/26 05:55:01;;;;;;;;;;;;;;;9.49;100.00;98438.34;5053990;28;19917;-79
2024/02/26 05:57:26;;;;;;;;;;;;;;;9.62;100.00;98434.41;5055414;28;20278;-80
2024/02/26 05:59:51;;;;;;;;;;;;;;;9.70;100.00;98441.28;5050156;28;19924;-80
2024/02/26 06:02:17;;;;;;;;;;;;;;;9.77;100.00;98446.59;5044367;28;20401;-80
2024/02/26 06:04:42;;;;;;;;;;;;;;;9.79;100.00;98454.44;5054256;28;19917;-79
2024/02/26 06:07:07;;;;;;;;;;;;;;;9.87;100.00;98455.03;5054212;28;19925;-78
2024/02/26 06:09:32;;;;;;;;;;;;;;;9.92;100.00;98460.78;5053833;28;19921;-80
2024/02/26 06:11:58;;;;;;;;;;;;;;;10.03;100.00;98450.19;5053679;28;19917;-80
2024/02/26 06:14:23;;;;;;;;;;;;;;;10.20;100.00;98456.44;5053637;28;19921;-79
2024/02/26 06:16:49;;;;;;;;;;;;;;;10.28;100.00;98457.78;5053753;28;20388;-79
2024/02/26 06:19:14;;;;;;;;;;;;;;;10.41;100.00;98455.81;5055113;28;19916;-79
2024/02/26 06:21:40;;;;;;;;;;;;;;;10.50;100.00;98464.19;5054171;28;20388;-79
2024/02/26 06:24:05;;;;;;;;;;;;;;;10.54;100.00;98467.63;5045187;28;19986;-79
2024/02/26 06:26:30;;;;;;;;;;;;;;;10.61;100.00;98469.38;5051803;28;19917;-79
2024/02/26 06:28:55;;;;;;;;;;;;;;;10.68;100.00;98473.91;5045886;28;19916;-78
2024/02/26 06:31:22;;;;;;;;;;;;;;;10.71;100.00;98482.09;5043985;28;19924;-79
2024/02/26 06:33:48;;;;;;;;;;;;;;;10.81;100.00;98489.28;5040116;28;20381;-78
2024/02/26 06:36:13;;;;;;;;;;;;;;;10.90;100.00;98491.38;5046714;28;19928;-80
2024/02/26 06:38:38;;;;;;;;;;;;;;;11.08;100.00;98488.03;5053978;28;19993;-79
2024/02/26 06:41:03;;;;;;;;;;;;;;;11.28;100.00;98483.78;5053560;28;19913;-79
2024/02/26 06:43:29;;;;;;;;;;;;;;;11.40;100.00;98479.44;5053764;28;20333;-79
2024/02/26 06:45:54;;;;;;;;;;;;;;;11.53;100.00;98480.16;5053659;28;19917;-79
2024/02/26 06:48:19;;;;;;;;;;;;;;;11.69;100.00;98479.25;5049106;28;20024;-78
2024/02/26 06:50:44;;;;;;;;;;;;;;;11.86;100.00;98483.41;5049382;28;19913;-80
2024/02/26 06:53:10;;;;;;;;;;;;;;;11.83;100.00;98484.28;5054752;28;20293;-79
2024/02/26 06:55:37;;;;;;;;;;;;;;;11.91;100.00;98491.13;5042822;28;20003;-79
2024/02/26 06:58:02;;;;;;;;;;;;;;;12.16;100.00;98493.75;5043287;28;19935;-78
2024/02/26 07:00:27;;;;;;;;;;;;;;;12.27;100.00;98487.81;5047145;28;20458;-78
2024/02/26 07:02:53;;;;;;;;;;;;;;;12.21;100.00;98486.84;5040000;28;20385;-79
2024/02/26 07:05:18;;;;;;;;;;;;;;;12.07;100.00;98485.38;5050499;28;19976;-79
2024/02/26 07:07:44;;;;;;;;;;;;;;;12.02;100.00;98485.19;5050979;28;19916;-79
2024/02/26 07:10:09;;;;;;;;;;;;;;;11.93;100.00;98480.38;5054456;28;19923;-79
2024/02/26 07:12:35;;;;;;;;;;;;;;;11.84;100.00;98480.31;5052985;28;19913;-79
2024/02/26 07:15:00;;;;;;;;;;;;;;;12.06;100.00;98478.28;5040613;28;19921;-79
2024/02/26 07:17:25;;;;;;;;;;;;;;;12.21;100.00;98478.56;5052516;28;19913;-79
2024/02/26 07:19:51;;;;;;;;;;;;;;;12.23;100.00;98476.88;5054694;28;19921;-78
2024/02/26 07:22:16;;;;;;;;;;;;;;;12.31;100.00;98476.59;5052906;28;19970;-79
2024/02/26 07:24:41;;;;;;;;;;;;;;;12.20;100.00;98474.22;5053644;28;19925;-78
2024/02/26 07:27:07;;;;;;;;;;;;;;;12.42;100.00;98474.97;5053440;28;19917;-78
2024/02/26 07:29:32;;;;;;;;;;;;;;;12.49;100.00;98473.91;5051936;28;19920;-78
2024/02/26 07:31:58;;;;;;;;;;;;;;;12.42;100.00;98474.97;5052493;28;19935;-78
2024/02/26 07:34:27;;;;;;;;;;;;;;;12.52;100.00;98484.09;5051595;28;19920;-79
2024/02/26 07:36:52;;;;;;;;;;;;;;;12.25;100.00;98481.94;5053104;28;19916;-81
2024/02/26 07:39:18;;;;;;;;;;;;;;;12.31;100.00;98495.97;5052890;28;20422;-81
2024/02/26 07:41:46;;;;;;;;;;;;;;;12.32;100.00;98492.78;5052629;28;19921;-78
2024/02/26 07:44:11;;;;;;;;;;;;;;;12.58;100.00;98490.59;5050786;28;20013;-80
2024/02/26 07:46:37;;;;;;;;;;;;;;;12.61;100.00;98500.75;5051403;28;19952;-79
2024/02/26 07:49:02;;;;;;;;;;;;;;;12.49;100.00;98499.63;5052731;28;19916;-78
2024/02/26 07:51:28;;;;;;;;;;;;;;;12.27;100.00;98498.91;5051530;28;20443;-79
2024/02/26 07:53:53;;;;;;;;;;;;;;;12.40;100.00;98498.81;5052707;28;19939;-80
2024/02/26 07:56:18;;;;;;;;;;;;;;;12.17;100.00;98514.69;5051538;28;19935;-80
2024/02/26 07:58:43;;;;;;;;;;;;;;;12.36;100.00;98498.16;5051465;28;19921;-79
2024/02/26 08:01:09;;;;;;;;;;;;;;;12.71;100.00;98505.16;5050872;28;19923;-80
2024/02/26 08:03:34;;;;;;;;;;;;;;;12.57;100.00;98514.00;5050952;28;19947;-79
2024/02/26 08:05:59;;;;;;;;;;;;;;;12.66;100.00;98511.25;5052317;28;19920;-78
2024/02/26 08:08:24;;;;;;;;;;;;;;;12.36;100.00;98514.78;5050460;28;20024;-79
2024/02/26 08:10:50;;;;;;;;;;;;;;;12.53;100.00;98510.59;5051090;28;19920;-80
2024/02/26 08:13:15;;;;;;;;;;;;;;;12.83;100.00;98512.59;5051195;28;19967;-80
2024/02/26 08:15:41;;;;;;;;;;;;;;;13.13;99.98;98507.47;5051158;28;19913;-80
2024/02/26 08:18:06;;;;;;;;;;;;;;;13.01;99.22;98515.44;5051058;28;20007;-78
2024/02/26 08:20:32;;;;;;;;;;;;;;;13.39;97.65;98509.53;5050112;28;19917;-78
2024/02/26 08:22:57;;;;;;;;;;;;;;;13.77;95.00;98514.66;5051615;28;19928;-78
2024/02/26 08:25:23;;;;;;;;;;;;;;;14.02;93.47;98512.81;5052098;28;19923;-79
2024/02/26 08:27:48;;;;;;;;;;;;;;;14.18;90.92;98516.03;5051650;28;19920;-81
2024/02/26 08:30:16;;;;;;;;;;;;;;;14.35;88.19;98513.66;5051512;28;19924;-79
2024/02/26 08:32:42;;;;;;;;;;;;;;;14.46;86.97;98522.34;5051017;28;19927;-78
2024/02/26 08:35:07;;;;;;;;;;;;;;;14.73;85.90;98517.94;5051489;28;19917;-77
2024/02/26 08:37:33;;;;;;;;;;;;;;;14.72;84.46;98521.94;5051270;28;19917;-81
2024/02/26 08:39:58;;;;;;;;;;;;;;;14.43;85.18;98514.16;5038207;28;19924;-78
2024/02/26 08:42:24;;;;;;;;;;;;;;;14.47;84.95;98518.31;5051485;28;20003;-81
2024/02/26 08:44:49;;;;;;;;;;;;;;;14.54;85.69;98520.75;5051188;28;19920;-78
2024/02/26 08:47:15;;;;;;;;;;;;;;;14.66;86.00;98511.47;5037605;28;19920;-80
2024/02/26 08:49:44;;;;;;;;;;;;;;;15.03;83.23;98505.75;5051026;28;19913;-79
2024/02/26 08:52:10;;;;;;;;;;;;;;;15.36;81.42;98511.31;5038309;28;20012;-79
2024/02/26 08:54:35;;;;;;;;;;;;;;;15.26;78.45;98501.44;5050820;28;19944;-79
2024/02/26 08:57:00;;;;;;;;;;;;;;;15.21;78.20;98502.09;5051331;28;19917;-77
2024/02/26 08:59:25;;;;;;;;;;;;;;;15.43;76.21;98495.00;5050184;28;19944;-80
2024/02/26 09:01:51;;;;;;;;;;;;;;;15.69;74.19;98497.31;5049950;28;19988;-79
2024/02/26 09:04:18;;;;;;;;;;;;;;;15.69;73.21;98494.53;5047603;28;20470;-80
2024/02/26 09:06:43;;;;;;;;;;;;;;;15.87;73.00;98488.81;5049527;28;19923;-78
2024/02/26 09:09:09;;;;;;;;;;;;;;;16.26;70.42;98479.16;5048535;28;19932;-77
2024/02/26 09:11:34;;;;;;;;;;;;;;;15.96;70.72;98479.63;5047765;28;19962;-79
2024/02/26 09:13:59;;;;;;;;;;;;;;;15.44;73.26;98479.06;5049707;28;20422;-78
2024/02/26 09:16:25;;;;;;;;;;;;;;;15.66;73.32;98468.41;5048419;28;19920;-79
2024/02/26 09:18:50;;;;;;;;;;;;;;;15.51;72.88;98469.56;5049220;28;19912;-79
2024/02/26 09:21:18;;;;;;;;;;;;;;;15.80;73.26;98472.47;5049911;28;19995;-80
2024/02/26 09:23:43;;;;;;;;;;;;;;;16.29;71.24;98469.84;5050094;28;19939;-80
2024/02/26 09:26:09;;;;;;;;;;;;;;;16.18;69.75;98466.84;5050977;28;19921;-77
2024/02/26 09:28:37;;;;;;;;;;;;;;;16.45;68.54;98474.16;5045754;28;19917;-77
2024/02/26 09:31:03;;;;;;;;;;;;;;;16.43;65.75;98464.75;5042589;28;19916;-78
2024/02/26 09:33:29;;;;;;;;;;;;;;;16.31;64.60;98457.44;5050793;28;19936;-79
2024/02/26 09:35:54;;;;;;;;;;;;;;;16.35;63.70;98463.56;5050489;28;20304;-80
2024/02/26 09:38:19;;;;;;;;;;;;;;;16.19;65.32;98462.06;5050639;28;19913;-78
2024/02/26 09:40:44;;;;;;;;;;;;;;;16.02;65.36;98449.84;5050601;28;19917;-79
2024/02/26 09:43:13;;;;;;;;;;;;;;;16.01;67.32;98449.06;5050450;28;20414;-80
2024/02/26 09:45:38;;;;;;;;;;;;;;;15.92;66.68;98454.72;5050569;28;19916;-79
2024/02/26 09:48:04;;;;;;;;;;;;;;;16.00;65.74;98450.31;5051025;28;20327;-79
2024/02/26 09:50:29;;;;;;;;;;;;;;;16.12;65.64;98463.19;5054150;28;19921;-77
2024/02/26 09:52:57;;;;;;;;;;;;;;;16.17;63.48;98456.19;5050951;28;19991;-77
2024/02/26 09:55:22;;;;;;;;;;;;;;;15.96;62.38;98452.53;5044477;28;19924;-79
2024/02/26 09:57:48;;;;;;;;;;;;;;;15.78;65.45;98458.25;5048568;28;19913;-77
2024/02/26 10:00:16;;;;;;;;;;;;;;;15.78;64.78;98453.47;5050037;28;19916;-77
2024/02/26 10:02:41;;;;;;;;;;;;;;;15.76;65.39;98453.16;5050403;28;20312;-77
2024/02/26 10:05:09;;;;;;;;;;;;;;;15.45;66.79;98442.41;5051354;28;19932;-78
2024/02/26 10:07:35;;;;;;;;;;;;;;;15.54;66.82;98441.59;5054733;28;19920;-81
2024/02/26 10:10:01;;;;;;;;;;;;;;;15.48;65.94;98437.91;5050996;28;20653;-80
2024/02/26 10:12:28;;;;;;;;;;;;;;;15.71;66.08;98430.78;5052049;28;19913;-77
2024/02/26 10:14:53;;;;;;;;;;;;;;;16.24;64.35;98434.28;5053348;28;19970;-78
2024/02/26 10:17:18;;;;;;;;;;;;;;;16.35;62.32;98424.53;5052890;28;19920;-76
2024/02/26 10:19:44;;;;;;;;;;;;;;;16.35;62.91;98427.34;5054359;28;20395;-79
2024/02/26 10:22:09;;;;;;;;;;;;;;;16.67;61.64;98418.00;5046450;28;19925;-79
2024/02/26 10:24:34;;;;;;;;;;;;;;;16.71;60.19;98418.56;5053832;28;19924;-78
2024/02/26 10:27:00;;;;;;;;;;;;;;;16.80;58.71;98410.06;5053670;28;19920;-81
2024/02/26 10:29:25;;;;;;;;;;;;;;;16.97;59.86;98405.50;5050210;28;19960;-80
2024/02/26 10:31:51;;;;;;;;;;;;;;;16.99;57.34;98408.56;5053515;28;19919;-79
2024/02/26 10:34:16;;;;;;;;;;;;;;;16.88;58.68;98405.59;5053434;28;19966;-77
2024/02/26 10:36:42;;;;;;;;;;;;;;;16.73;58.12;98407.69;5041119;28;19917;-80
2024/02/26 10:39:07;;;;;;;;;;;;;;;16.77;58.06;98410.25;5054581;28;19932;-77
2024/02/26 10:41:33;;;;;;;;;;;;;;;16.65;58.87;98400.97;5053848;28;19916;-81
2024/02/26 10:43:58;;;;;;;;;;;;;;;16.08;60.96;98404.09;5053781;28;20021;-77
2024/02/26 10:46:25;;;;;;;;;;;;;;;16.41;61.27;98392.72;5053804;28;19983;-78
2024/02/26 10:48:51;;;;;;;;;;;;;;;16.96;57.98;98394.81;5045188;28;20007;-78
2024/02/26 10:51:19;;;;;;;;;;;;;;;17.17;58.44;98403.97;5054414;28;19956;-80
2024/02/26 10:53:45;;;;;;;;;;;;;;;16.17;59.97;98398.41;5053217;28;20376;-79
2024/02/26 10:56:11;;;;;;;;;;;;;;;16.41;60.53;98389.16;5045457;28;19921;-78
2024/02/26 10:58:37;;;;;;;;;;;;;;;16.41;61.56;98383.56;5041065;28;19917;-80
2024/02/26 11:01:03;;;;;;;;;;;;;;;16.85;60.84;98386.28;5051933;28;20011;-79
2024/02/26 11:03:31;;;;;;;;;;;;;;;17.03;58.61;98378.41;5045802;28;20012;-77
2024/02/26 11:05:57;;;;;;;;;;;;;;;17.30;58.28;98374.41;5052648;28;19952;-79
2024/02/26 11:08:24;;;;;;;;;;;;;;;17.23;58.02;98371.31;5052896;28;19952;-80
2024/02/26 11:10:52;;;;;;;;;;;;;;;17.43;56.26;98363.66;5051557;28;20019;-79
2024/02/26 11:13:18;;;;;;;;;;;;;;;17.01;58.65;98361.38;5053787;28;20007;-83
2024/02/26 11:15:47;;;;;;;;;;;;;;;16.91;58.50;98357.19;5050656;28;20474;-80
2024/02/26 11:18:13;;;;;;;;;;;;;;;17.07;58.94;98359.44;5052006;28;19917;-81
2024/02/26 11:20:39;;;;;;;;;;;;;;;17.00;57.12;98351.47;5047683;28;19975;-80
2024/02/26 11:23:04;;;;;;;;;;;;;;;17.15;56.58;98350.63;5049749;28;20308;-81
2024/02/26 11:25:30;;;;;;;;;;;;;;;17.28;55.82;98351.81;5041847;28;19928;-80
2024/02/26 11:27:58;;;;;;;;;;;;;;;17.20;55.73;98353.50;5043501;28;19921;-80
2024/02/26 11:30:26;;;;;;;;;;;;;;;16.89;56.10;98356.91;5048933;28;19927;-81
2024/02/26 11:32:52;;;;;;;;;;;;;;;16.56;57.20;98354.41;5047369;28;20020;-81
2024/02/26 11:35:18;;;;;;;;;;;;;;;17.06;55.95;98357.13;5062509;28;19921;-81
2024/02/26 11:37:56;;;;;;;;;;;;;;;17.31;54.13;98352.84;5047698;28;19928;-81
2024/02/26 11:40:28;;;;;;;;;;;;;;;17.27;54.19;98343.94;5046254;28;19975;-81
2024/02/26 11:42:54;;;;;;;;;;;;;;;17.32;54.27;98346.00;5051472;28;19920;-80
2024/02/26 11:45:37;;;;;;;;;;;;;;;17.06;56.32;98337.59;5046207;28;19975;-81
2024/02/26 11:48:03;;;;;;;;;;;;;;;17.15;55.99;98345.81;5052416;28;19917;-79
2024/02/26 11:50:41;;;;;;;;;;;;;;;17.58;54.14;98332.06;5033872;28;19925;-80
2024/02/26 11:53:26;;;;;;;;;;;;;;;17.88;52.06;98333.41;5039469;28;20319;-80
2024/02/26 11:56:10;;;;;;;;;;;;;;;17.76;51.94;98326.19;5052867;28;19924;-79
2024/02/26 11:58:35;;;;;;;;;;;;;;;17.67;52.03;98321.53;5052407;28;19968;-80
2024/02/26 12:01:02;;;;;;;;;;;;;;;17.84;51.43;98325.22;5051391;28;20005;-81
2024/02/26 12:03:28;;;;;;;;;;;;;;;17.79;51.87;98317.56;5050740;28;19921;-80
2024/02/26 12:05:53;;;;;;;;;;;;;;;17.76;51.99;98312.97;5053009;28;19921;-80
2024/02/26 12:08:21;;;;;;;;;;;;;;;17.26;53.50;98308.88;5035685;28;19921;-81
2024/02/26 12:10:48;;;;;;;;;;;;;;;17.13;55.29;98314.06;5045649;28;19923;-80
2024/02/26 12:13:14;;;;;;;;;;;;;;;17.30;54.34;98303.88;5034835;28;19983;-81
2024/02/26 12:15:43;;;;;;;;;;;;;;;17.43;53.12;98307.81;5043950;28;19925;-80
2024/02/26 12:18:12;;;;;;;;;;;;;;;17.62;53.07;98308.28;5057502;28;19927;-80
2024/02/26 12:20:37;;;;;;;;;;;;;;;17.81;51.36;98314.28;5041980;28;19920;-80
2024/02/26 12:23:06;;;;;;;;;;;;;;;17.69;52.36;98310.63;5044038;28;19935;-82
2024/02/26 12:25:32;;;;;;;;;;;;;;;17.89;52.78;98304.19;5045377;28;20346;-80
2024/02/26 12:27:58;;;;;;;;;;;;;;;17.84;51.71;98308.47;5041824;28;19928;-82
2024/02/26 12:30:29;;;;;;;;;;;;;;;18.14;51.31;98308.97;5057759;28;19983;-79
2024/02/26 12:32:57;;;;;;;;;;;;;;;18.35;48.75;98312.41;5044223;28;20358;-81
2024/02/26 12:35:22;;;;;;;;;;;;;;;18.39;48.07;98314.97;5046044;28;19951;-80